Cleveland, Ohio
Traffic Map
Current Weather Conditions
Cleveland, Ohio
Clear
Clear
43°
Feels Like: 39°
Wind Chill: 39° Ceiling: Unl
Heat Index: 43° Visibility: 10mi
Dew Point: 30° Wind: 7mph
Humidity: 60% Direction: 150° (SSE)
Pressure: 30.3in Gusts: 0mph
Raw Report DataKBKL 201053Z AUTO 15006KT 10SM CLR 06/M01 A3030 RMK AO2 SLP265 T00611011 $
Traffic Incident Summary
Active as of:
Severity:
Category:
InformationThere was an issue retrieving the traffic information for this location. Please try a different location or try again shortly.
Advertisements
At Last! Intellicast now available for iPhone and Android